createdAt,value
2022-10-16T00:02:11.823Z,0.80
2022-10-16T00:07:36.621Z,0.67
2022-10-16T00:13:00.005Z,0.70
2022-10-16T00:18:23.222Z,0.60
2022-10-16T00:23:48.228Z,0.97
2022-10-16T00:29:11.549Z,0.60
2022-10-16T00:34:34.688Z,0.90
2022-10-16T00:39:59.114Z,0.83
2022-10-16T00:45:22.197Z,0.60
2022-10-16T00:50:45.263Z,0.90
2022-10-16T00:56:09.948Z,1.13
2022-10-16T01:01:33.053Z,1.00
2022-10-16T01:07:04.305Z,0.97
2022-10-16T01:12:38.681Z,1.03
2022-10-16T01:18:04.788Z,1.03
2022-10-16T01:23:40.683Z,1.20
2022-10-16T01:29:08.733Z,1.30
2022-10-16T01:34:35.743Z,1.20
2022-10-16T01:40:01.038Z,0.83
2022-10-16T01:45:25.498Z,0.80
2022-10-16T01:50:54.601Z,0.70
2022-10-16T01:56:19.549Z,0.73
2022-10-16T02:01:47.801Z,0.60
2022-10-16T02:07:11.126Z,0.73
2022-10-16T02:12:35.331Z,0.50
2022-10-16T02:17:59.716Z,0.67
2022-10-16T02:23:35.711Z,1.00
2022-10-16T02:29:02.913Z,1.00
2022-10-16T02:34:27.735Z,0.70
2022-10-16T02:39:50.890Z,0.73
2022-10-16T02:45:13.982Z,0.70
2022-10-16T02:50:38.448Z,0.80
2022-10-16T02:56:01.496Z,0.60
2022-10-16T03:01:24.879Z,1.17
2022-10-16T03:06:49.305Z,0.90
2022-10-16T03:12:13.009Z,0.90
2022-10-16T03:17:36.078Z,0.67
2022-10-16T03:23:00.569Z,1.23
2022-10-16T03:28:23.733Z,0.87
2022-10-16T03:33:46.851Z,1.10
2022-10-16T03:39:11.358Z,1.10
2022-10-16T03:44:34.398Z,1.30
2022-10-16T03:49:57.859Z,1.23
2022-10-16T03:55:22.383Z,1.00
2022-10-16T04:00:46.330Z,1.00
2022-10-16T04:06:09.918Z,1.17
2022-10-16T04:11:34.298Z,1.00
2022-10-16T04:16:57.306Z,0.93
2022-10-16T04:22:20.441Z,1.30
2022-10-16T04:27:46.139Z,0.90
2022-10-16T04:33:10.774Z,1.20
2022-10-16T04:38:34.119Z,1.03
2022-10-16T04:43:58.496Z,1.97
2022-10-16T04:49:21.684Z,1.53
2022-10-16T04:54:46.067Z,1.70
2022-10-16T05:00:12.202Z,1.10
2022-10-16T05:05:35.349Z,1.77
2022-10-16T05:10:58.323Z,1.30
2022-10-16T05:16:22.725Z,1.07
2022-10-16T05:21:45.745Z,1.53
2022-10-16T05:27:08.969Z,1.20
2022-10-16T05:32:33.389Z,1.50
2022-10-16T05:37:56.469Z,0.93
2022-10-16T05:43:19.530Z,2.23
2022-10-16T05:48:44.301Z,1.27
2022-10-16T05:54:07.314Z,0.83
2022-10-16T05:59:30.491Z,0.90
2022-10-16T06:04:55.691Z,1.27
2022-10-16T06:10:18.770Z,1.30
2022-10-16T06:15:43.314Z,1.70
2022-10-16T06:21:11.701Z,1.30
2022-10-16T06:26:34.765Z,1.67
2022-10-16T06:31:57.896Z,0.97
2022-10-16T06:37:23.086Z,1.40
2022-10-16T06:42:46.176Z,1.33
2022-10-16T06:48:09.320Z,1.17
2022-10-16T06:53:40.022Z,1.20
2022-10-16T06:59:12.315Z,1.00
2022-10-16T07:04:35.347Z,1.97
2022-10-16T07:09:59.716Z,1.47
2022-10-16T07:15:22.736Z,1.27
2022-10-16T07:20:45.795Z,1.67
2022-10-16T07:26:11.447Z,1.70
2022-10-16T07:31:34.658Z,3.67
2022-10-16T07:36:57.768Z,1.63
2022-10-16T07:42:22.185Z,1.27
2022-10-16T07:47:45.266Z,2.10
2022-10-16T07:53:08.344Z,1.73
2022-10-16T07:58:33.104Z,1.60
2022-10-16T08:03:56.228Z,2.03
2022-10-16T08:09:19.375Z,2.27
2022-10-16T08:14:47.020Z,2.07
2022-10-16T08:20:12.832Z,1.77
2022-10-16T08:25:37.123Z,1.50
2022-10-16T08:31:09.248Z,1.80
2022-10-16T08:36:32.383Z,1.73
2022-10-16T08:42:15.271Z,1.90
2022-10-16T08:47:47.652Z,1.80
2022-10-16T08:53:17.146Z,1.90
2022-10-16T08:58:40.263Z,2.60
2022-10-16T09:04:22.235Z,2.03
2022-10-16T09:09:58.586Z,2.90
2022-10-16T09:15:27.347Z,1.87
2022-10-16T09:20:57.622Z,1.87
2022-10-16T09:31:46.942Z,3.03
2022-10-16T09:37:14.684Z,1.77
2022-10-16T09:42:38.787Z,1.70
2022-10-16T09:48:03.805Z,3.20
2022-10-16T09:53:39.584Z,1.77
2022-10-16T09:59:05.491Z,2.73
2022-10-16T10:04:40.062Z,1.73
2022-10-16T10:10:06.919Z,1.47
2022-10-16T10:15:35.324Z,1.27
2022-10-16T10:21:02.069Z,1.33
2022-10-16T10:26:29.658Z,1.73
2022-10-16T10:32:00.441Z,2.13
2022-10-16T10:37:37.055Z,2.63
2022-10-16T10:43:05.293Z,2.20
2022-10-16T10:48:45.023Z,3.33
2022-10-16T10:54:16.126Z,1.73
2022-10-16T10:59:51.113Z,2.97
2022-10-16T11:05:40.439Z,2.00
2022-10-16T11:11:06.965Z,1.37
2022-10-16T11:16:34.125Z,1.83
2022-10-16T11:22:01.439Z,1.95
2022-10-16T11:27:38.247Z,1.90
2022-10-16T11:33:26.752Z,1.88
2022-10-16T11:38:54.937Z,1.48
2022-10-16T11:44:38.221Z,1.65
2022-10-16T11:50:06.780Z,1.45
2022-10-16T11:55:34.075Z,1.75
2022-10-16T12:01:02.787Z,1.67
2022-10-16T12:06:33.745Z,1.60
2022-10-16T12:11:58.103Z,1.40
2022-10-16T12:17:29.539Z,1.30
2022-10-16T12:22:56.501Z,1.83
2022-10-16T12:28:23.023Z,1.45
2022-10-16T12:33:57.991Z,4.30
2022-10-16T12:39:24.728Z,1.27
2022-10-16T12:44:48.192Z,1.52
2022-10-16T12:50:27.467Z,1.23
2022-10-16T12:56:04.234Z,1.80
2022-10-16T13:01:35.409Z,3.13
2022-10-16T13:07:04.783Z,1.40
2022-10-16T13:12:46.507Z,1.10
2022-10-16T13:18:15.247Z,1.50
2022-10-16T13:29:15.867Z,1.95
2022-10-16T13:34:46.014Z,1.83
2022-10-16T13:40:20.969Z,1.60
2022-10-16T13:45:54.965Z,1.85
2022-10-16T13:51:20.476Z,1.88
2022-10-16T13:56:43.749Z,2.25
2022-10-16T14:02:20.087Z,1.48
2022-10-16T14:13:33.655Z,1.20
2022-10-16T14:19:02.225Z,1.25
2022-10-16T14:24:29.370Z,3.10
2022-10-16T14:29:52.567Z,1.25
2022-10-16T14:35:27.058Z,2.30
2022-10-16T14:40:51.492Z,2.38
2022-10-16T14:46:15.916Z,2.08
2022-10-16T14:51:41.946Z,1.95
2022-10-16T14:57:05.173Z,1.70
2022-10-16T15:02:31.243Z,2.03
2022-10-16T15:07:56.671Z,1.45
2022-10-16T15:13:19.899Z,1.50
2022-10-16T15:18:43.080Z,4.05
2022-10-16T15:24:11.871Z,4.93
2022-10-16T15:29:35.946Z,6.77
2022-10-16T15:34:59.006Z,2.40
2022-10-16T15:40:24.586Z,2.13
2022-10-16T15:46:01.383Z,3.03
2022-10-16T15:51:24.560Z,2.63
2022-10-16T15:56:49.071Z,2.33
2022-10-16T16:02:12.481Z,2.27
2022-10-16T16:07:36.632Z,6.93
2022-10-16T16:13:01.029Z,4.63
2022-10-16T16:18:24.786Z,4.20
2022-10-16T16:23:47.908Z,3.33
2022-10-16T16:29:14.336Z,3.10
2022-10-16T16:34:37.531Z,2.60
2022-10-16T16:40:00.639Z,2.77
2022-10-16T16:45:29.526Z,3.20
2022-10-16T16:50:52.719Z,3.33
2022-10-16T16:56:16.203Z,3.07
2022-10-16T17:01:40.753Z,4.70
2022-10-16T17:07:03.956Z,1.87
2022-10-16T17:12:27.056Z,2.07
2022-10-16T17:17:51.532Z,2.00
2022-10-16T17:23:14.906Z,2.00
2022-10-16T17:28:38.267Z,2.03
2022-10-16T17:34:04.754Z,2.20
2022-10-16T17:39:27.909Z,3.37
2022-10-16T17:44:50.935Z,2.80
2022-10-16T17:50:15.849Z,2.80
2022-10-16T17:55:40.163Z,4.10
2022-10-16T18:01:03.891Z,2.03
2022-10-16T18:06:29.015Z,1.97
2022-10-16T18:11:59.616Z,2.43
2022-10-16T18:17:22.795Z,1.93
2022-10-16T18:22:47.259Z,2.60
2022-10-16T18:28:10.330Z,5.57
2022-10-16T18:33:33.899Z,3.03
2022-10-16T18:38:58.608Z,3.27
2022-10-16T18:44:21.692Z,2.33
2022-10-16T18:49:46.683Z,4.00
2022-10-16T18:55:12.071Z,3.33
2022-10-16T19:00:35.174Z,2.47
2022-10-16T19:06:01.187Z,4.50
2022-10-16T19:11:27.151Z,2.63
2022-10-16T19:16:50.251Z,2.33
2022-10-16T19:22:17.150Z,2.53
2022-10-16T19:27:41.681Z,2.43
2022-10-16T19:33:05.198Z,4.47
2022-10-16T19:38:28.279Z,3.30
2022-10-16T19:43:53.339Z,2.57
2022-10-16T19:49:21.174Z,3.93
2022-10-16T19:54:44.267Z,3.43
2022-10-16T20:00:11.453Z,3.57
2022-10-16T20:05:34.567Z,2.40
2022-10-16T20:10:57.661Z,1.60
2022-10-16T20:16:22.293Z,2.60
2022-10-16T20:21:45.497Z,2.67
2022-10-16T20:27:08.703Z,2.27
2022-10-16T20:32:33.119Z,2.20
2022-10-16T20:37:56.392Z,1.70
2022-10-16T20:43:21.308Z,1.50
2022-10-16T20:48:46.896Z,1.53
2022-10-16T20:54:12.461Z,1.30
2022-10-16T20:59:35.736Z,1.60
2022-10-16T21:05:00.088Z,1.87
2022-10-16T21:10:23.239Z,1.70
2022-10-16T21:15:46.274Z,1.97
2022-10-16T21:21:10.985Z,1.50
2022-10-16T21:26:34.560Z,1.73
2022-10-16T21:31:57.688Z,3.63
2022-10-16T21:37:22.136Z,2.80
2022-10-16T21:42:45.190Z,2.93
2022-10-16T21:48:08.325Z,1.63
2022-10-16T21:53:33.164Z,2.83
2022-10-16T21:58:56.308Z,2.47
2022-10-16T22:04:19.361Z,1.90
2022-10-16T22:09:44.081Z,2.03
2022-10-16T22:15:08.428Z,2.07
2022-10-16T22:20:31.458Z,1.90
2022-10-16T22:26:00.063Z,2.70
2022-10-16T22:31:23.877Z,1.80
2022-10-16T22:36:49.715Z,2.03
2022-10-16T22:42:14.217Z,2.30
2022-10-16T22:47:37.478Z,2.50
2022-10-16T22:53:00.677Z,2.20
2022-10-16T22:58:25.143Z,2.47
2022-10-16T23:03:48.266Z,2.50
2022-10-16T23:09:11.520Z,2.63
2022-10-16T23:14:35.964Z,2.03
2022-10-16T23:19:59.048Z,2.60
2022-10-16T23:25:22.148Z,3.03
2022-10-16T23:30:46.572Z,2.00
2022-10-16T23:36:11.354Z,3.47
2022-10-16T23:41:34.402Z,2.70
2022-10-16T23:46:58.893Z,2.20
2022-10-16T23:52:21.970Z,2.47
2022-10-16T23:57:45.486Z,2.77
